This is the latest recevied weather packets stored in our database for station/object SQ9NFI-4. If no packets are shown the sender has not sent any weather packets the latest 1 day(s).
| Time | Temp. | Humidity | Pressure | Rain* | Wind** | Luminosity | Snow |
|---|---|---|---|---|---|---|---|
| 1778099978 | 13.89° C | 82% | 1007.8 hPa | 0 mm | - | 0 W/m² | - |
| 1778099678 | 13.89° C | 80% | 1007.8 hPa | 0 mm | - | 0 W/m² | - |
| 1778099378 | 13.89° C | 79% | 1007.8 hPa | 0 mm | - | 0 W/m² | - |
| 1778098778 | 14.44° C | 80% | 1007.8 hPa | 0 mm | - | 0 W/m² | - |
| 1778097578 | 13.89° C | 85% | 1007.8 hPa | 0 mm | - | 0 W/m² | - |
| 1778097278 | 13.89° C | 83% | 1007.8 hPa | 0 mm | - | 0 W/m² | - |
| 1778096378 | 13.89° C | 80% | 1007.8 hPa | 0 mm | - | 0 W/m² | - |
| 1778095778 | 14.44° C | 81% | 1007.5 hPa | 0 mm | - | 0 W/m² | - |
| 1778093378 | 15.56° C | 73% | 1007.5 hPa | 0 mm | - | 0 W/m² | - |
| 1778092178 | 17.22° C | 70% | 1006.8 hPa | 0 mm | - | 0 W/m² | - |
| 1778091878 | 17.22° C | 70% | 1006.8 hPa | 0 mm | - | 1 W/m² | - |
| 1778091278 | 18.33° C | 63% | 1006.4 hPa | 0 mm | - | 2 W/m² | - |
| 1778090978 | 18.33° C | 64% | 1006.4 hPa | 0 mm | - | 3 W/m² | - |
| 1778090378 | 19.44° C | 62% | 1006.4 hPa | 0 mm | - | 11 W/m² | - |
| 1778088578 | 20.56° C | 47% | 1006.8 hPa | 0 mm | - | 23 W/m² | - |
| 1778088278 | 20.56° C | 47% | 1006.8 hPa | 0 mm | - | 26 W/m² | - |
| 1778087978 | 20.56° C | 49% | 1006.8 hPa | 0 mm | - | 33 W/m² | - |
| 1778087678 | 20.56° C | 49% | 1006.8 hPa | 0 mm | - | 31 W/m² | - |
| 1778087378 | 20.56° C | 47% | 1006.8 hPa | 0 mm | - | 32 W/m² | - |
| 1778086778 | 21.11° C | 46% | 1006.4 hPa | 0 mm | - | 32 W/m² | - |
| 1778086478 | 21.11° C | 47% | 1006.4 hPa | 0 mm | - | 30 W/m² | - |
| 1778086178 | 21.67° C | 47% | 1006.4 hPa | 0 mm | - | 27 W/m² | - |
| 1778085878 | 21.67° C | 43% | 1006.8 hPa | 0 mm | - | 19 W/m² | - |
| 1778085578 | 21.67° C | 44% | 1006.8 hPa | 0 mm | - | 20 W/m² | - |
| 1778084978 | 22.22° C | 41% | 1006.8 hPa | 0 mm | - | 19 W/m² | - |
* Rain latest hour (hover to see other rain measurements)
** Current wind speed in m/s (hover to see current wind gust speed)